KRKD/RKD METAR and TAF weather

Enter ICAO airport designator
Station Type Date Time Source
KRKD METAR 2020/07/02 20:56 UTC NOAA

KRKD 022056Z AUTO 20007KT 10SM CLR 23/19 A2970 RMK AO2 SLP056 T02280194 56013


Station Type Date Time Source
KRKD Decoded METAR 2020/07/02 20:56 UTC NOAA

Rockland, Knox County Regional Airport, ME, United States (KRKD) 44-04N 069-06W
Jul 02, 2020 - 04:56 PM EDT / 2020.07.02 2056 UTC
Wind: from the SSW (200 degrees) at 8 MPH (7 KT):0
Visibility: 10 mile(s):0
Sky conditions: clear
Temperature: 73.0 F (22.8 C)
Dew Point: 66.9 F (19.4 C)
Relative Humidity: 81%
Pressure (altimeter): 29.7 in. Hg (1005 hPa)
Pressure tendency: 0.04 inches (1.3 hPa) lower than three hours ago
ob: KRKD 022056Z AUTO 20007KT 10SM CLR 23/19 A2970 RMK AO2 SLP056 T02280194 56013
cycle: 21

Station Type Date Time Source
KRKD TAF 2020/07/02 18:24 UTC NOAA

TAF KRKD 021721Z 0218/0318 20007KT P6SM SKC
FM022300 VRB03KT P6SM OVC100
FM030400 VRB03KT 1/2SM FG OVC003
FM031600 06008KT P6SM BKN015

Example: see airport list